sensor_id;sensor_type;location;lat;lon;timestamp;temperature;humidity
5554;DHT22;2800;49.528;8.666;2023-08-06T00:02:20;16.00;99.90
5554;DHT22;2800;49.528;8.666;2023-08-06T00:04:46;16.00;99.90
5554;DHT22;2800;49.528;8.666;2023-08-06T00:07:12;16.00;99.90
5554;DHT22;2800;49.528;8.666;2023-08-06T00:09:37;16.10;99.90
5554;DHT22;2800;49.528;8.666;2023-08-06T00:12:03;16.00;99.90
5554;DHT22;2800;49.528;8.666;2023-08-06T00:14:29;16.10;99.90
5554;DHT22;2800;49.528;8.666;2023-08-06T00:16:54;16.10;99.90
5554;DHT22;2800;49.528;8.666;2023-08-06T00:19:20;16.10;99.90
5554;DHT22;2800;49.528;8.666;2023-08-06T00:21:45;16.10;99.90
5554;DHT22;2800;49.528;8.666;2023-08-06T00:24:11;16.10;99.90
5554;DHT22;2800;49.528;8.666;2023-08-06T00:26:36;16.10;99.90
5554;DHT22;2800;49.528;8.666;2023-08-06T00:29:02;16.20;99.90
5554;DHT22;2800;49.528;8.666;2023-08-06T00:31:27;16.20;99.90
5554;DHT22;2800;49.528;8.666;2023-08-06T00:33:53;16.30;99.90
5554;DHT22;2800;49.528;8.666;2023-08-06T00:36:18;16.30;99.90
5554;DHT22;2800;49.528;8.666;2023-08-06T00:38:44;16.30;99.90
5554;DHT22;2800;49.528;8.666;2023-08-06T00:41:09;16.30;99.90
5554;DHT22;2800;49.528;8.666;2023-08-06T00:43:35;16.40;99.90
5554;DHT22;2800;49.528;8.666;2023-08-06T00:46:00;16.40;99.90
5554;DHT22;2800;49.528;8.666;2023-08-06T00:48:26;16.50;99.90
5554;DHT22;2800;49.528;8.666;2023-08-06T00:50:52;16.60;99.90
5554;DHT22;2800;49.528;8.666;2023-08-06T00:53:17;16.50;99.90
5554;DHT22;2800;49.528;8.666;2023-08-06T00:55:45;16.60;99.90
5554;DHT22;2800;49.528;8.666;2023-08-06T00:58:11;16.50;99.90
5554;DHT22;2800;49.528;8.666;2023-08-06T01:00:37;16.50;99.90
5554;DHT22;2800;49.528;8.666;2023-08-06T01:03:03;16.50;99.90
5554;DHT22;2800;49.528;8.666;2023-08-06T01:05:28;16.50;99.90
5554;DHT22;2800;49.528;8.666;2023-08-06T01:08:23;16.60;99.90
5554;DHT22;2800;49.528;8.666;2023-08-06T01:14:15;16.60;99.90
5554;DHT22;2800;49.528;8.666;2023-08-06T01:16:42;16.60;99.90
5554;DHT22;2800;49.528;8.666;2023-08-06T01:19:17;16.60;99.90
5554;DHT22;2800;49.528;8.666;2023-08-06T01:21:43;16.60;99.90
5554;DHT22;2800;49.528;8.666;2023-08-06T01:24:09;16.60;99.90
5554;DHT22;2800;49.528;8.666;2023-08-06T01:26:59;16.60;99.90
5554;DHT22;2800;49.528;8.666;2023-08-06T01:29:43;16.70;99.90
5554;DHT22;2800;49.528;8.666;2023-08-06T01:32:11;16.60;99.90
5554;DHT22;2800;49.528;8.666;2023-08-06T01:34:40;16.60;99.90
5554;DHT22;2800;49.528;8.666;2023-08-06T01:37:07;16.60;99.90
5554;DHT22;2800;49.528;8.666;2023-08-06T01:39:36;16.60;99.90
5554;DHT22;2800;49.528;8.666;2023-08-06T01:42:01;16.60;99.90
5554;DHT22;2800;49.528;8.666;2023-08-06T01:44:27;16.50;99.90
5554;DHT22;2800;49.528;8.666;2023-08-06T01:46:53;16.50;99.90
5554;DHT22;2800;49.528;8.666;2023-08-06T01:49:18;16.60;99.90
5554;DHT22;2800;49.528;8.666;2023-08-06T01:51:44;16.60;99.90
5554;DHT22;2800;49.528;8.666;2023-08-06T01:54:09;16.60;99.90
5554;DHT22;2800;49.528;8.666;2023-08-06T01:56:35;16.50;99.90
5554;DHT22;2800;49.528;8.666;2023-08-06T01:59:00;16.50;99.90
5554;DHT22;2800;49.528;8.666;2023-08-06T02:01:26;16.50;99.90
5554;DHT22;2800;49.528;8.666;2023-08-06T02:03:51;16.50;99.90
5554;DHT22;2800;49.528;8.666;2023-08-06T02:06:17;16.50;99.90
5554;DHT22;2800;49.528;8.666;2023-08-06T02:08:42;16.50;99.90
5554;DHT22;2800;49.528;8.666;2023-08-06T02:11:08;16.40;99.90
5554;DHT22;2800;49.528;8.666;2023-08-06T02:13:33;16.40;99.90
5554;DHT22;2800;49.528;8.666;2023-08-06T02:15:59;16.40;99.90
5554;DHT22;2800;49.528;8.666;2023-08-06T02:18:24;16.40;99.90
5554;DHT22;2800;49.528;8.666;2023-08-06T02:20:59;16.40;99.90
5554;DHT22;2800;49.528;8.666;2023-08-06T02:23:25;16.40;99.90
5554;DHT22;2800;49.528;8.666;2023-08-06T02:26:02;16.40;99.90
5554;DHT22;2800;49.528;8.666;2023-08-06T02:28:28;16.40;99.90
5554;DHT22;2800;49.528;8.666;2023-08-06T02:30:54;16.40;99.90
5554;DHT22;2800;49.528;8.666;2023-08-06T02:33:20;16.30;99.90
5554;DHT22;2800;49.528;8.666;2023-08-06T02:35:45;16.30;99.90
5554;DHT22;2800;49.528;8.666;2023-08-06T02:38:11;16.30;99.90
5554;DHT22;2800;49.528;8.666;2023-08-06T02:40:36;16.30;99.90
5554;DHT22;2800;49.528;8.666;2023-08-06T02:43:02;16.30;99.90
5554;DHT22;2800;49.528;8.666;2023-08-06T02:45:28;16.20;99.90
5554;DHT22;2800;49.528;8.666;2023-08-06T02:47:54;16.20;99.90
5554;DHT22;2800;49.528;8.666;2023-08-06T02:50:19;16.20;99.90
5554;DHT22;2800;49.528;8.666;2023-08-06T02:52:45;16.10;99.90
5554;DHT22;2800;49.528;8.666;2023-08-06T02:55:10;16.10;99.90
5554;DHT22;2800;49.528;8.666;2023-08-06T02:57:35;16.10;99.90
5554;DHT22;2800;49.528;8.666;2023-08-06T03:00:01;16.10;99.90
5554;DHT22;2800;49.528;8.666;2023-08-06T03:02:27;16.10;99.90
5554;DHT22;2800;49.528;8.666;2023-08-06T03:04:53;16.00;99.90
5554;DHT22;2800;49.528;8.666;2023-08-06T03:07:18;16.00;99.90
5554;DHT22;2800;49.528;8.666;2023-08-06T03:09:44;16.00;99.90
5554;DHT22;2800;49.528;8.666;2023-08-06T03:12:09;15.90;99.90
5554;DHT22;2800;49.528;8.666;2023-08-06T03:14:35;15.90;99.90
5554;DHT22;2800;49.528;8.666;2023-08-06T03:17:00;15.80;99.90
5554;DHT22;2800;49.528;8.666;2023-08-06T03:19:26;15.80;99.90
5554;DHT22;2800;49.528;8.666;2023-08-06T03:21:51;15.80;99.90
5554;DHT22;2800;49.528;8.666;2023-08-06T03:24:17;15.80;99.90
5554;DHT22;2800;49.528;8.666;2023-08-06T03:26:42;15.80;99.90
5554;DHT22;2800;49.528;8.666;2023-08-06T03:29:08;15.70;99.90
5554;DHT22;2800;49.528;8.666;2023-08-06T03:31:33;15.70;99.90
5554;DHT22;2800;49.528;8.666;2023-08-06T03:33:59;15.70;99.90
5554;DHT22;2800;49.528;8.666;2023-08-06T03:36:24;15.70;99.90
5554;DHT22;2800;49.528;8.666;2023-08-06T03:38:50;15.70;99.90
5554;DHT22;2800;49.528;8.666;2023-08-06T03:41:15;15.70;99.90
5554;DHT22;2800;49.528;8.666;2023-08-06T03:43:41;15.80;99.90
5554;DHT22;2800;49.528;8.666;2023-08-06T03:46:06;15.70;99.90
5554;DHT22;2800;49.528;8.666;2023-08-06T03:48:32;15.70;99.90
5554;DHT22;2800;49.528;8.666;2023-08-06T03:50:57;15.70;99.90
5554;DHT22;2800;49.528;8.666;2023-08-06T03:53:23;15.70;99.90
5554;DHT22;2800;49.528;8.666;2023-08-06T03:55:48;15.70;99.90
5554;DHT22;2800;49.528;8.666;2023-08-06T03:58:14;15.60;99.90
5554;DHT22;2800;49.528;8.666;2023-08-06T04:00:39;15.60;99.90
5554;DHT22;2800;49.528;8.666;2023-08-06T04:03:05;15.60;99.90
5554;DHT22;2800;49.528;8.666;2023-08-06T04:05:33;15.60;99.90
5554;DHT22;2800;49.528;8.666;2023-08-06T04:07:59;15.60;99.90
5554;DHT22;2800;49.528;8.666;2023-08-06T04:10:25;15.50;99.90
5554;DHT22;2800;49.528;8.666;2023-08-06T04:12:50;15.50;99.90
5554;DHT22;2800;49.528;8.666;2023-08-06T04:15:16;15.50;99.90
5554;DHT22;2800;49.528;8.666;2023-08-06T04:17:41;15.50;99.90
5554;DHT22;2800;49.528;8.666;2023-08-06T04:20:07;15.50;99.90
5554;DHT22;2800;49.528;8.666;2023-08-06T04:22:33;15.40;99.90
5554;DHT22;2800;49.528;8.666;2023-08-06T04:24:58;15.40;99.90
5554;DHT22;2800;49.528;8.666;2023-08-06T04:27:25;15.40;99.90
5554;DHT22;2800;49.528;8.666;2023-08-06T04:29:51;15.30;99.90
5554;DHT22;2800;49.528;8.666;2023-08-06T04:32:16;15.30;99.90
5554;DHT22;2800;49.528;8.666;2023-08-06T04:34:42;15.20;99.90
5554;DHT22;2800;49.528;8.666;2023-08-06T04:37:08;15.10;99.90
5554;DHT22;2800;49.528;8.666;2023-08-06T04:39:34;15.10;99.90
5554;DHT22;2800;49.528;8.666;2023-08-06T04:41:59;15.00;99.90
5554;DHT22;2800;49.528;8.666;2023-08-06T04:44:25;15.00;99.90
5554;DHT22;2800;49.528;8.666;2023-08-06T04:46:51;14.90;99.90
5554;DHT22;2800;49.528;8.666;2023-08-06T04:49:17;14.80;99.90
5554;DHT22;2800;49.528;8.666;2023-08-06T04:51:43;14.80;99.90
5554;DHT22;2800;49.528;8.666;2023-08-06T04:54:09;14.70;99.90
5554;DHT22;2800;49.528;8.666;2023-08-06T04:56:34;14.80;99.90
5554;DHT22;2800;49.528;8.666;2023-08-06T04:59:00;14.80;99.90
5554;DHT22;2800;49.528;8.666;2023-08-06T05:01:26;14.80;99.90
5554;DHT22;2800;49.528;8.666;2023-08-06T05:03:51;15.90;99.90
5554;DHT22;2800;49.528;8.666;2023-08-06T05:06:17;14.80;99.90
5554;DHT22;2800;49.528;8.666;2023-08-06T05:08:42;14.80;99.90
5554;DHT22;2800;49.528;8.666;2023-08-06T05:11:09;14.80;99.90
5554;DHT22;2800;49.528;8.666;2023-08-06T05:13:35;14.70;99.90
5554;DHT22;2800;49.528;8.666;2023-08-06T05:16:00;14.70;99.90
5554;DHT22;2800;49.528;8.666;2023-08-06T05:18:26;14.80;99.90
5554;DHT22;2800;49.528;8.666;2023-08-06T05:20:51;14.70;99.90
5554;DHT22;2800;49.528;8.666;2023-08-06T05:23:17;14.70;99.90
5554;DHT22;2800;49.528;8.666;2023-08-06T05:25:42;14.70;99.90
5554;DHT22;2800;49.528;8.666;2023-08-06T05:28:08;14.40;99.90
5554;DHT22;2800;49.528;8.666;2023-08-06T05:30:33;14.40;99.90
5554;DHT22;2800;49.528;8.666;2023-08-06T05:32:59;14.30;99.90
5554;DHT22;2800;49.528;8.666;2023-08-06T05:35:24;14.20;99.90
5554;DHT22;2800;49.528;8.666;2023-08-06T05:37:50;14.20;99.90
5554;DHT22;2800;49.528;8.666;2023-08-06T05:40:16;14.10;99.90
5554;DHT22;2800;49.528;8.666;2023-08-06T05:42:41;14.10;99.90
5554;DHT22;2800;49.528;8.666;2023-08-06T05:45:07;14.00;99.90
5554;DHT22;2800;49.528;8.666;2023-08-06T05:47:33;14.00;99.90
5554;DHT22;2800;49.528;8.666;2023-08-06T05:49:59;14.00;99.90
5554;DHT22;2800;49.528;8.666;2023-08-06T05:52:25;14.00;99.90
5554;DHT22;2800;49.528;8.666;2023-08-06T05:54:50;14.00;99.90
5554;DHT22;2800;49.528;8.666;2023-08-06T05:57:17;13.90;99.90
5554;DHT22;2800;49.528;8.666;2023-08-06T05:59:42;14.00;99.90
5554;DHT22;2800;49.528;8.666;2023-08-06T06:02:08;14.00;99.90
5554;DHT22;2800;49.528;8.666;2023-08-06T06:04:33;14.00;99.90
5554;DHT22;2800;49.528;8.666;2023-08-06T06:06:59;14.00;99.90
5554;DHT22;2800;49.528;8.666;2023-08-06T06:09:25;14.00;99.90
5554;DHT22;2800;49.528;8.666;2023-08-06T06:11:50;14.00;99.90
5554;DHT22;2800;49.528;8.666;2023-08-06T06:14:19;14.00;99.90
5554;DHT22;2800;49.528;8.666;2023-08-06T06:16:45;13.90;99.90
5554;DHT22;2800;49.528;8.666;2023-08-06T06:19:11;13.90;99.90
5554;DHT22;2800;49.528;8.666;2023-08-06T06:21:37;13.90;99.90
5554;DHT22;2800;49.528;8.666;2023-08-06T06:24:04;13.90;99.90
5554;DHT22;2800;49.528;8.666;2023-08-06T06:26:30;13.90;99.90
5554;DHT22;2800;49.528;8.666;2023-08-06T06:28:56;13.90;99.90
5554;DHT22;2800;49.528;8.666;2023-08-06T06:31:21;13.90;99.90
5554;DHT22;2800;49.528;8.666;2023-08-06T06:33:47;13.90;99.90
5554;DHT22;2800;49.528;8.666;2023-08-06T06:36:12;13.90;99.90
5554;DHT22;2800;49.528;8.666;2023-08-06T06:38:38;14.00;99.90
5554;DHT22;2800;49.528;8.666;2023-08-06T06:41:04;14.00;99.90
5554;DHT22;2800;49.528;8.666;2023-08-06T06:43:29;13.90;99.90
5554;DHT22;2800;49.528;8.666;2023-08-06T06:45:59;13.90;99.90
5554;DHT22;2800;49.528;8.666;2023-08-06T06:48:29;13.90;99.90
5554;DHT22;2800;49.528;8.666;2023-08-06T06:50:55;13.90;99.90
5554;DHT22;2800;49.528;8.666;2023-08-06T06:53:21;13.90;99.90
5554;DHT22;2800;49.528;8.666;2023-08-06T06:55:52;13.90;99.90
5554;DHT22;2800;49.528;8.666;2023-08-06T06:58:18;13.90;99.90
5554;DHT22;2800;49.528;8.666;2023-08-06T07:00:43;13.90;99.90
5554;DHT22;2800;49.528;8.666;2023-08-06T07:03:09;13.90;99.90
5554;DHT22;2800;49.528;8.666;2023-08-06T07:05:34;14.00;99.90
5554;DHT22;2800;49.528;8.666;2023-08-06T07:08:00;14.00;99.90
5554;DHT22;2800;49.528;8.666;2023-08-06T07:10:26;14.00;99.90
5554;DHT22;2800;49.528;8.666;2023-08-06T07:12:51;14.00;99.90
5554;DHT22;2800;49.528;8.666;2023-08-06T07:15:17;14.10;99.90
5554;DHT22;2800;49.528;8.666;2023-08-06T07:17:43;14.10;99.90
5554;DHT22;2800;49.528;8.666;2023-08-06T07:20:08;14.20;99.90
5554;DHT22;2800;49.528;8.666;2023-08-06T07:22:34;14.20;99.90
5554;DHT22;2800;49.528;8.666;2023-08-06T07:25:00;14.20;99.90
5554;DHT22;2800;49.528;8.666;2023-08-06T07:27:25;14.20;99.90
5554;DHT22;2800;49.528;8.666;2023-08-06T07:29:51;14.30;99.90
5554;DHT22;2800;49.528;8.666;2023-08-06T07:32:16;14.40;99.90
5554;DHT22;2800;49.528;8.666;2023-08-06T07:34:42;14.40;99.90
5554;DHT22;2800;49.528;8.666;2023-08-06T07:37:07;14.50;99.90
5554;DHT22;2800;49.528;8.666;2023-08-06T07:39:33;14.50;99.90
5554;DHT22;2800;49.528;8.666;2023-08-06T07:41:58;14.50;99.90
5554;DHT22;2800;49.528;8.666;2023-08-06T07:44:24;14.50;99.90
5554;DHT22;2800;49.528;8.666;2023-08-06T07:46:50;14.60;99.90
5554;DHT22;2800;49.528;8.666;2023-08-06T07:49:15;14.50;99.90
5554;DHT22;2800;49.528;8.666;2023-08-06T07:51:41;14.60;99.90
5554;DHT22;2800;49.528;8.666;2023-08-06T07:54:06;14.70;99.90
5554;DHT22;2800;49.528;8.666;2023-08-06T07:56:32;14.70;99.90
5554;DHT22;2800;49.528;8.666;2023-08-06T07:58:57;14.70;99.90
5554;DHT22;2800;49.528;8.666;2023-08-06T08:01:23;14.70;99.90
5554;DHT22;2800;49.528;8.666;2023-08-06T08:03:49;14.80;99.90
5554;DHT22;2800;49.528;8.666;2023-08-06T08:06:14;14.80;99.90
5554;DHT22;2800;49.528;8.666;2023-08-06T08:08:40;14.80;99.90
5554;DHT22;2800;49.528;8.666;2023-08-06T08:11:05;14.80;99.90
5554;DHT22;2800;49.528;8.666;2023-08-06T08:13:31;14.80;99.90
5554;DHT22;2800;49.528;8.666;2023-08-06T08:16:00;14.70;99.90
5554;DHT22;2800;49.528;8.666;2023-08-06T08:18:26;14.60;99.90
5554;DHT22;2800;49.528;8.666;2023-08-06T08:20:51;14.70;99.90
5554;DHT22;2800;49.528;8.666;2023-08-06T08:23:17;14.70;99.90
5554;DHT22;2800;49.528;8.666;2023-08-06T08:25:43;14.80;99.90
5554;DHT22;2800;49.528;8.666;2023-08-06T08:28:08;14.90;99.90
5554;DHT22;2800;49.528;8.666;2023-08-06T08:30:34;15.00;99.90
5554;DHT22;2800;49.528;8.666;2023-08-06T08:32:59;14.90;99.90
5554;DHT22;2800;49.528;8.666;2023-08-06T08:35:25;15.00;99.90
5554;DHT22;2800;49.528;8.666;2023-08-06T08:37:51;15.00;99.90
5554;DHT22;2800;49.528;8.666;2023-08-06T08:40:17;15.00;99.90
5554;DHT22;2800;49.528;8.666;2023-08-06T08:42:43;15.10;99.90
5554;DHT22;2800;49.528;8.666;2023-08-06T08:45:14;15.30;99.90
5554;DHT22;2800;49.528;8.666;2023-08-06T08:47:43;15.20;99.90
5554;DHT22;2800;49.528;8.666;2023-08-06T08:50:09;15.20;99.90
5554;DHT22;2800;49.528;8.666;2023-08-06T08:52:38;15.00;99.90
5554;DHT22;2800;49.528;8.666;2023-08-06T08:55:04;15.00;99.90
5554;DHT22;2800;49.528;8.666;2023-08-06T08:57:30;14.90;99.90
5554;DHT22;2800;49.528;8.666;2023-08-06T08:59:56;14.90;99.90
5554;DHT22;2800;49.528;8.666;2023-08-06T09:02:21;15.10;99.90
5554;DHT22;2800;49.528;8.666;2023-08-06T09:04:49;15.30;99.90
5554;DHT22;2800;49.528;8.666;2023-08-06T09:07:18;15.40;99.90
5554;DHT22;2800;49.528;8.666;2023-08-06T09:09:47;15.60;99.90
5554;DHT22;2800;49.528;8.666;2023-08-06T09:12:17;15.70;99.90
5554;DHT22;2800;49.528;8.666;2023-08-06T09:14:43;15.70;99.90
5554;DHT22;2800;49.528;8.666;2023-08-06T09:17:09;15.60;99.90
5554;DHT22;2800;49.528;8.666;2023-08-06T09:19:36;15.70;99.90
5554;DHT22;2800;49.528;8.666;2023-08-06T09:22:02;16.20;99.90
5554;DHT22;2800;49.528;8.666;2023-08-06T09:24:28;15.60;99.90
5554;DHT22;2800;49.528;8.666;2023-08-06T09:26:53;15.70;99.90
5554;DHT22;2800;49.528;8.666;2023-08-06T09:29:19;15.70;99.90
5554;DHT22;2800;49.528;8.666;2023-08-06T09:31:49;15.70;99.90
5554;DHT22;2800;49.528;8.666;2023-08-06T09:34:19;15.40;99.90
5554;DHT22;2800;49.528;8.666;2023-08-06T09:36:49;15.30;99.90
5554;DHT22;2800;49.528;8.666;2023-08-06T09:39:20;15.20;99.90
5554;DHT22;2800;49.528;8.666;2023-08-06T09:41:47;15.30;99.90
5554;DHT22;2800;49.528;8.666;2023-08-06T09:44:16;15.60;99.90
5554;DHT22;2800;49.528;8.666;2023-08-06T09:46:48;15.70;99.90
5554;DHT22;2800;49.528;8.666;2023-08-06T09:49:18;16.00;99.90
5554;DHT22;2800;49.528;8.666;2023-08-06T09:51:44;16.10;99.90
5554;DHT22;2800;49.528;8.666;2023-08-06T09:54:12;16.10;99.90
5554;DHT22;2800;49.528;8.666;2023-08-06T09:56:39;16.20;99.90
5554;DHT22;2800;49.528;8.666;2023-08-06T09:59:05;16.20;99.90
5554;DHT22;2800;49.528;8.666;2023-08-06T10:01:33;16.10;99.90
5554;DHT22;2800;49.528;8.666;2023-08-06T10:04:00;15.90;99.90
5554;DHT22;2800;49.528;8.666;2023-08-06T10:06:26;15.50;99.90
5554;DHT22;2800;49.528;8.666;2023-08-06T10:08:53;15.30;99.90
5554;DHT22;2800;49.528;8.666;2023-08-06T10:11:23;15.10;99.90
5554;DHT22;2800;49.528;8.666;2023-08-06T10:13:54;14.90;99.90
5554;DHT22;2800;49.528;8.666;2023-08-06T10:16:21;15.00;99.90
5554;DHT22;2800;49.528;8.666;2023-08-06T10:18:47;15.00;99.90
5554;DHT22;2800;49.528;8.666;2023-08-06T10:21:14;15.10;99.90
5554;DHT22;2800;49.528;8.666;2023-08-06T10:23:41;15.00;99.90
5554;DHT22;2800;49.528;8.666;2023-08-06T10:26:07;15.10;99.90
5554;DHT22;2800;49.528;8.666;2023-08-06T10:28:39;15.10;99.90
5554;DHT22;2800;49.528;8.666;2023-08-06T10:31:05;15.20;99.90
5554;DHT22;2800;49.528;8.666;2023-08-06T10:33:45;15.30;99.90
5554;DHT22;2800;49.528;8.666;2023-08-06T10:36:11;15.30;99.90
5554;DHT22;2800;49.528;8.666;2023-08-06T10:38:50;15.30;99.90
5554;DHT22;2800;49.528;8.666;2023-08-06T10:41:29;15.20;99.90
5554;DHT22;2800;49.528;8.666;2023-08-06T10:44:07;15.20;99.90
5554;DHT22;2800;49.528;8.666;2023-08-06T10:46:34;15.00;99.90
5554;DHT22;2800;49.528;8.666;2023-08-06T10:48:59;14.80;99.90
5554;DHT22;2800;49.528;8.666;2023-08-06T10:51:25;14.70;99.90
5554;DHT22;2800;49.528;8.666;2023-08-06T10:53:51;14.70;99.90
5554;DHT22;2800;49.528;8.666;2023-08-06T10:56:18;14.70;99.90
5554;DHT22;2800;49.528;8.666;2023-08-06T10:58:47;14.70;99.90
5554;DHT22;2800;49.528;8.666;2023-08-06T11:01:13;14.80;99.90
5554;DHT22;2800;49.528;8.666;2023-08-06T11:03:39;14.80;99.90
5554;DHT22;2800;49.528;8.666;2023-08-06T11:06:06;14.80;99.90
5554;DHT22;2800;49.528;8.666;2023-08-06T11:08:40;14.80;99.90
5554;DHT22;2800;49.528;8.666;2023-08-06T11:11:10;14.90;99.90
5554;DHT22;2800;49.528;8.666;2023-08-06T11:13:42;14.90;99.90
5554;DHT22;2800;49.528;8.666;2023-08-06T11:16:09;15.00;99.90
5554;DHT22;2800;49.528;8.666;2023-08-06T11:18:35;15.00;99.90
5554;DHT22;2800;49.528;8.666;2023-08-06T11:21:01;15.10;99.90
5554;DHT22;2800;49.528;8.666;2023-08-06T11:23:28;15.20;99.90
5554;DHT22;2800;49.528;8.666;2023-08-06T11:25:57;15.30;99.90
5554;DHT22;2800;49.528;8.666;2023-08-06T11:28:23;15.30;99.90
5554;DHT22;2800;49.528;8.666;2023-08-06T11:30:50;15.30;99.90
5554;DHT22;2800;49.528;8.666;2023-08-06T11:33:26;15.40;99.90
5554;DHT22;2800;49.528;8.666;2023-08-06T11:35:53;15.50;99.90
5554;DHT22;2800;49.528;8.666;2023-08-06T11:38:19;15.50;99.90
5554;DHT22;2800;49.528;8.666;2023-08-06T11:40:45;15.60;99.90
5554;DHT22;2800;49.528;8.666;2023-08-06T11:43:12;15.70;99.90
5554;DHT22;2800;49.528;8.666;2023-08-06T11:45:38;15.80;99.90
5554;DHT22;2800;49.528;8.666;2023-08-06T11:48:03;15.80;99.90
5554;DHT22;2800;49.528;8.666;2023-08-06T11:50:30;15.80;99.90
5554;DHT22;2800;49.528;8.666;2023-08-06T11:52:57;15.80;99.90
5554;DHT22;2800;49.528;8.666;2023-08-06T11:55:24;15.90;99.90
5554;DHT22;2800;49.528;8.666;2023-08-06T11:57:50;15.80;99.90
5554;DHT22;2800;49.528;8.666;2023-08-06T12:00:15;16.00;99.90
5554;DHT22;2800;49.528;8.666;2023-08-06T12:02:44;16.00;99.90
5554;DHT22;2800;49.528;8.666;2023-08-06T12:05:14;16.00;99.90
5554;DHT22;2800;49.528;8.666;2023-08-06T12:07:42;16.00;99.90
5554;DHT22;2800;49.528;8.666;2023-08-06T12:10:09;16.10;99.90
5554;DHT22;2800;49.528;8.666;2023-08-06T12:12:35;16.10;99.90
5554;DHT22;2800;49.528;8.666;2023-08-06T12:15:00;16.10;99.90
5554;DHT22;2800;49.528;8.666;2023-08-06T12:17:26;16.10;99.90
5554;DHT22;2800;49.528;8.666;2023-08-06T12:19:52;16.20;99.90
5554;DHT22;2800;49.528;8.666;2023-08-06T12:22:18;16.30;99.90
5554;DHT22;2800;49.528;8.666;2023-08-06T12:24:45;16.20;99.90
5554;DHT22;2800;49.528;8.666;2023-08-06T12:27:11;16.30;99.90
5554;DHT22;2800;49.528;8.666;2023-08-06T12:29:40;16.30;99.90
5554;DHT22;2800;49.528;8.666;2023-08-06T12:32:06;16.30;99.90
5554;DHT22;2800;49.528;8.666;2023-08-06T12:34:32;16.20;99.90
5554;DHT22;2800;49.528;8.666;2023-08-06T12:36:57;16.20;99.90
5554;DHT22;2800;49.528;8.666;2023-08-06T12:39:23;16.30;99.90
5554;DHT22;2800;49.528;8.666;2023-08-06T12:41:49;16.40;99.90
5554;DHT22;2800;49.528;8.666;2023-08-06T12:44:14;16.40;99.90
5554;DHT22;2800;49.528;8.666;2023-08-06T12:46:40;16.40;99.90
5554;DHT22;2800;49.528;8.666;2023-08-06T12:49:05;16.40;99.90
5554;DHT22;2800;49.528;8.666;2023-08-06T12:51:31;16.40;99.90
5554;DHT22;2800;49.528;8.666;2023-08-06T12:53:59;16.40;99.90
5554;DHT22;2800;49.528;8.666;2023-08-06T12:56:24;16.50;99.90
5554;DHT22;2800;49.528;8.666;2023-08-06T12:58:50;16.50;99.90
5554;DHT22;2800;49.528;8.666;2023-08-06T13:01:15;16.50;99.90
5554;DHT22;2800;49.528;8.666;2023-08-06T13:03:41;16.50;99.90
5554;DHT22;2800;49.528;8.666;2023-08-06T13:06:06;16.50;99.90
5554;DHT22;2800;49.528;8.666;2023-08-06T13:08:33;16.50;99.90
5554;DHT22;2800;49.528;8.666;2023-08-06T13:10:58;16.50;99.90
5554;DHT22;2800;49.528;8.666;2023-08-06T13:13:24;16.30;99.90
5554;DHT22;2800;49.528;8.666;2023-08-06T13:15:52;16.10;99.90
5554;DHT22;2800;49.528;8.666;2023-08-06T13:18:17;15.90;99.90
5554;DHT22;2800;49.528;8.666;2023-08-06T13:20:43;15.50;99.90
5554;DHT22;2800;49.528;8.666;2023-08-06T13:23:09;15.40;99.90
5554;DHT22;2800;49.528;8.666;2023-08-06T13:25:34;15.40;99.90
5554;DHT22;2800;49.528;8.666;2023-08-06T13:28:02;15.50;99.90
5554;DHT22;2800;49.528;8.666;2023-08-06T13:30:28;15.60;99.90
5554;DHT22;2800;49.528;8.666;2023-08-06T13:32:54;15.60;99.90
5554;DHT22;2800;49.528;8.666;2023-08-06T13:35:22;15.60;99.90
5554;DHT22;2800;49.528;8.666;2023-08-06T13:37:47;15.70;99.90
5554;DHT22;2800;49.528;8.666;2023-08-06T13:40:13;15.00;99.90
5554;DHT22;2800;49.528;8.666;2023-08-06T13:42:39;15.70;99.90
5554;DHT22;2800;49.528;8.666;2023-08-06T13:45:06;15.60;99.90
5554;DHT22;2800;49.528;8.666;2023-08-06T13:47:31;15.70;99.90
5554;DHT22;2800;49.528;8.666;2023-08-06T13:49:57;15.60;99.90
5554;DHT22;2800;49.528;8.666;2023-08-06T13:52:22;15.60;99.90
5554;DHT22;2800;49.528;8.666;2023-08-06T13:54:48;15.70;99.90
5554;DHT22;2800;49.528;8.666;2023-08-06T13:57:14;15.70;99.90
5554;DHT22;2800;49.528;8.666;2023-08-06T13:59:39;15.80;99.90
5554;DHT22;2800;49.528;8.666;2023-08-06T14:02:04;15.80;99.90
5554;DHT22;2800;49.528;8.666;2023-08-06T14:04:30;15.70;99.90
5554;DHT22;2800;49.528;8.666;2023-08-06T14:06:55;15.70;99.90
5554;DHT22;2800;49.528;8.666;2023-08-06T14:09:21;15.60;99.90
5554;DHT22;2800;49.528;8.666;2023-08-06T14:11:46;15.60;99.90
5554;DHT22;2800;49.528;8.666;2023-08-06T14:14:12;15.50;99.90
5554;DHT22;2800;49.528;8.666;2023-08-06T14:16:38;15.50;99.90
5554;DHT22;2800;49.528;8.666;2023-08-06T14:19:03;15.50;99.90
5554;DHT22;2800;49.528;8.666;2023-08-06T14:21:29;15.50;99.90
5554;DHT22;2800;49.528;8.666;2023-08-06T14:23:54;15.60;99.90
5554;DHT22;2800;49.528;8.666;2023-08-06T14:26:20;15.70;99.90
5554;DHT22;2800;49.528;8.666;2023-08-06T14:28:45;15.70;99.90
5554;DHT22;2800;49.528;8.666;2023-08-06T14:31:12;15.80;99.90
5554;DHT22;2800;49.528;8.666;2023-08-06T14:33:37;15.80;99.90
5554;DHT22;2800;49.528;8.666;2023-08-06T14:36:03;15.80;99.90
5554;DHT22;2800;49.528;8.666;2023-08-06T14:38:28;15.80;99.90
5554;DHT22;2800;49.528;8.666;2023-08-06T14:40:54;15.80;99.90
5554;DHT22;2800;49.528;8.666;2023-08-06T14:43:20;15.70;99.90
5554;DHT22;2800;49.528;8.666;2023-08-06T14:45:45;15.70;99.90
5554;DHT22;2800;49.528;8.666;2023-08-06T14:48:11;15.70;99.90
5554;DHT22;2800;49.528;8.666;2023-08-06T14:50:36;15.70;99.90
5554;DHT22;2800;49.528;8.666;2023-08-06T14:53:04;15.70;99.90
5554;DHT22;2800;49.528;8.666;2023-08-06T14:55:31;15.70;99.90
5554;DHT22;2800;49.528;8.666;2023-08-06T14:57:56;15.80;99.90
5554;DHT22;2800;49.528;8.666;2023-08-06T15:00:22;15.80;99.90
5554;DHT22;2800;49.528;8.666;2023-08-06T15:02:47;15.80;99.90
5554;DHT22;2800;49.528;8.666;2023-08-06T15:05:13;15.80;99.90
5554;DHT22;2800;49.528;8.666;2023-08-06T15:07:39;15.90;99.90
5554;DHT22;2800;49.528;8.666;2023-08-06T15:10:05;15.80;99.90
5554;DHT22;2800;49.528;8.666;2023-08-06T15:12:31;15.80;99.90
5554;DHT22;2800;49.528;8.666;2023-08-06T15:14:58;15.80;99.90
5554;DHT22;2800;49.528;8.666;2023-08-06T15:17:24;15.80;99.90
5554;DHT22;2800;49.528;8.666;2023-08-06T15:19:50;15.80;99.90
5554;DHT22;2800;49.528;8.666;2023-08-06T15:22:16;15.80;99.90
5554;DHT22;2800;49.528;8.666;2023-08-06T15:24:41;15.80;99.90
5554;DHT22;2800;49.528;8.666;2023-08-06T15:27:10;15.80;99.90
5554;DHT22;2800;49.528;8.666;2023-08-06T15:29:37;15.80;99.90
5554;DHT22;2800;49.528;8.666;2023-08-06T15:32:03;15.80;99.90
5554;DHT22;2800;49.528;8.666;2023-08-06T15:34:28;15.80;99.90
5554;DHT22;2800;49.528;8.666;2023-08-06T15:36:54;15.70;99.90
5554;DHT22;2800;49.528;8.666;2023-08-06T15:39:20;15.80;99.90
5554;DHT22;2800;49.528;8.666;2023-08-06T15:41:46;15.80;99.90
5554;DHT22;2800;49.528;8.666;2023-08-06T15:44:11;15.80;99.90
5554;DHT22;2800;49.528;8.666;2023-08-06T15:46:37;15.70;99.90
5554;DHT22;2800;49.528;8.666;2023-08-06T15:49:03;15.70;99.90
5554;DHT22;2800;49.528;8.666;2023-08-06T15:51:28;15.60;99.90
5554;DHT22;2800;49.528;8.666;2023-08-06T15:53:54;15.60;99.90
5554;DHT22;2800;49.528;8.666;2023-08-06T15:56:19;15.60;99.90
5554;DHT22;2800;49.528;8.666;2023-08-06T15:58:45;15.70;99.90
5554;DHT22;2800;49.528;8.666;2023-08-06T16:01:10;15.70;99.90